createdAt,value
2023-01-12T00:00:08.812Z,1.70
2023-01-12T00:05:15.377Z,1.67
2023-01-12T00:10:17.525Z,1.17
2023-01-12T00:15:39.528Z,1.70
2023-01-12T00:20:48.284Z,1.70
2023-01-12T00:25:51.585Z,1.23
2023-01-12T00:30:53.817Z,1.42
2023-01-12T00:35:55.935Z,1.90
2023-01-12T00:41:05.314Z,1.52
2023-01-12T00:46:09.744Z,1.90
2023-01-12T00:51:11.914Z,2.17
2023-01-12T00:56:14.033Z,1.00
2023-01-12T01:01:16.152Z,1.88
2023-01-12T01:06:18.354Z,1.90
2023-01-12T01:11:20.632Z,2.22
2023-01-12T01:16:22.734Z,2.10
2023-01-12T01:21:25.436Z,1.77
2023-01-12T01:26:27.736Z,2.00
2023-01-12T01:31:30.052Z,1.48
2023-01-12T01:36:32.339Z,2.33
2023-01-12T01:41:34.612Z,2.10
2023-01-12T01:46:52.569Z,1.67
2023-01-12T01:52:00.199Z,2.53
2023-01-12T01:57:03.128Z,2.03
2023-01-12T02:02:05.565Z,2.00
2023-01-12T02:07:08.936Z,2.50
2023-01-12T02:12:29.477Z,1.45
2023-01-12T02:17:34.371Z,1.73
2023-01-12T02:22:49.115Z,1.88
2023-01-12T02:28:36.447Z,1.75
2023-01-12T02:33:50.692Z,1.83
2023-01-12T02:39:21.734Z,1.75
2023-01-12T02:45:02.477Z,2.00
2023-01-12T02:50:10.091Z,1.77
2023-01-12T02:55:15.334Z,1.92
2023-01-12T03:00:18.967Z,2.58
2023-01-12T03:05:22.065Z,1.85
2023-01-12T03:10:45.632Z,1.90
2023-01-12T03:15:52.434Z,2.13
2023-01-12T03:21:00.077Z,1.95
2023-01-12T03:26:04.929Z,1.30
2023-01-12T03:31:11.883Z,2.00
2023-01-12T03:36:20.673Z,2.00
2023-01-12T03:41:59.501Z,2.05
2023-01-12T03:47:07.470Z,2.60
2023-01-12T03:52:12.377Z,2.45
2023-01-12T03:57:15.503Z,2.53
2023-01-12T04:02:17.586Z,2.05
2023-01-12T04:07:19.683Z,2.10
2023-01-12T04:12:21.786Z,2.75
2023-01-12T04:17:25.408Z,1.90
2023-01-12T04:22:45.596Z,2.75
2023-01-12T04:27:50.411Z,2.50
2023-01-12T04:32:52.695Z,2.60
2023-01-12T04:37:55.090Z,3.13
2023-01-12T04:43:08.453Z,3.25
2023-01-12T04:48:12.596Z,3.15
2023-01-12T04:53:14.644Z,2.78
2023-01-12T04:58:16.747Z,2.35
2023-01-12T05:03:18.975Z,3.10
2023-01-12T05:08:39.347Z,3.03
2023-01-12T05:13:41.715Z,3.55
2023-01-12T05:18:45.337Z,3.53
2023-01-12T05:23:47.879Z,2.90
2023-01-12T05:28:51.127Z,3.42
2023-01-12T05:33:53.221Z,2.88
2023-01-12T05:38:55.275Z,2.95
2023-01-12T05:43:57.343Z,3.67
2023-01-12T05:48:59.557Z,3.50
2023-01-12T05:54:03.199Z,3.47
2023-01-12T05:59:05.360Z,3.83
2023-01-12T06:04:07.500Z,2.95
2023-01-12T06:09:09.642Z,3.70
2023-01-12T06:14:11.962Z,3.22
2023-01-12T06:19:14.123Z,3.92
2023-01-12T06:24:16.317Z,3.63
2023-01-12T06:29:18.368Z,3.45
2023-01-12T06:34:20.701Z,3.38
2023-01-12T06:39:22.752Z,3.28
2023-01-12T06:44:24.933Z,3.90
2023-01-12T06:49:26.968Z,3.70
2023-01-12T06:54:29.035Z,3.47
2023-01-12T06:59:31.080Z,3.70
2023-01-12T07:04:33.169Z,3.28
2023-01-12T07:09:35.486Z,5.40
2023-01-12T07:14:37.607Z,4.25
2023-01-12T07:19:41.584Z,3.90
2023-01-12T07:24:43.755Z,3.67
2023-01-12T07:29:46.766Z,4.22
2023-01-12T07:34:48.964Z,4.10
2023-01-12T07:39:51.098Z,3.67
2023-01-12T07:44:53.459Z,4.22
2023-01-12T07:49:55.709Z,4.00
2023-01-12T07:54:58.358Z,4.30
2023-01-12T08:00:00.427Z,4.85
2023-01-12T08:05:02.667Z,3.78
2023-01-12T08:10:06.087Z,2.28
2023-01-12T08:15:09.831Z,3.70
2023-01-12T08:20:23.233Z,4.47
2023-01-12T08:25:30.679Z,4.05
2023-01-12T08:30:32.835Z,3.83
2023-01-12T08:35:35.709Z,4.32
2023-01-12T08:40:56.286Z,4.07
2023-01-12T08:46:07.939Z,3.92
2023-01-12T09:01:15.893Z,4.13
2023-01-12T09:06:21.758Z,4.22
2023-01-12T09:11:24.746Z,4.55
2023-01-12T09:16:29.533Z,3.53
2023-01-12T09:21:32.409Z,2.97
2023-01-12T09:26:43.042Z,3.60
2023-01-12T09:31:46.136Z,3.40
2023-01-12T09:36:51.352Z,4.35
2023-01-12T09:42:11.920Z,4.85
2023-01-12T09:47:35.260Z,4.55
2023-01-12T09:52:53.337Z,4.55
2023-01-12T09:58:15.612Z,3.97
2023-01-12T10:03:38.600Z,4.85
2023-01-12T10:09:01.007Z,4.15
2023-01-12T10:19:35.406Z,4.22
2023-01-12T10:24:41.325Z,4.15
2023-01-12T10:29:43.417Z,3.05
2023-01-12T10:34:52.285Z,3.33
2023-01-12T10:39:54.879Z,4.07
2023-01-12T10:45:22.589Z,4.78
2023-01-12T10:50:32.777Z,3.58
2023-01-12T10:55:39.825Z,4.05
2023-01-12T11:00:48.171Z,3.13
2023-01-12T11:05:50.263Z,2.60
2023-01-12T11:10:52.399Z,2.97
2023-01-12T11:16:12.263Z,3.13
2023-01-12T11:21:20.424Z,4.38
2023-01-12T11:26:28.887Z,4.20
2023-01-12T11:31:42.395Z,3.92
2023-01-12T11:36:51.185Z,5.00
2023-01-12T11:42:27.521Z,5.57
2023-01-12T11:47:36.858Z,4.28
2023-01-12T11:52:39.617Z,3.85
2023-01-12T11:57:47.698Z,4.88
2023-01-12T12:03:20.936Z,5.07
2023-01-12T12:08:41.552Z,4.00
2023-01-12T12:14:01.570Z,4.53
2023-01-12T12:19:03.680Z,4.88
2023-01-12T12:24:37.715Z,3.78
2023-01-12T12:30:22.183Z,2.88
2023-01-12T12:35:43.823Z,3.90
2023-01-12T12:41:15.844Z,3.92
2023-01-12T12:46:33.007Z,3.80
2023-01-12T12:51:37.818Z,3.22
2023-01-12T12:56:40.023Z,3.85
2023-01-12T13:01:55.707Z,3.65
2023-01-12T13:07:05.708Z,3.03
2023-01-12T13:12:07.720Z,3.53
2023-01-12T13:17:19.155Z,4.28
2023-01-12T13:22:43.650Z,3.78
2023-01-12T13:27:56.444Z,5.15
2023-01-12T13:33:25.116Z,2.67
2023-01-12T13:38:54.036Z,3.97
2023-01-12T13:43:58.974Z,4.00
2023-01-12T13:49:02.005Z,4.13
2023-01-12T13:54:16.086Z,3.65
2023-01-12T13:59:19.176Z,3.47
2023-01-12T14:04:36.527Z,2.97
2023-01-12T14:09:47.373Z,3.85
2023-01-12T14:15:26.475Z,3.05
2023-01-12T14:20:31.400Z,3.42
2023-01-12T14:25:33.486Z,2.92
2023-01-12T14:30:36.597Z,3.72
2023-01-12T14:35:47.016Z,3.35
2023-01-12T14:40:55.257Z,3.73
2023-01-12T14:46:20.622Z,3.13
2023-01-12T14:52:05.865Z,3.70
2023-01-12T14:57:19.750Z,4.03
2023-01-12T15:02:35.405Z,6.13
2023-01-12T15:07:54.129Z,4.80
2023-01-12T15:12:58.300Z,5.13
2023-01-12T15:18:18.883Z,2.78
2023-01-12T15:23:53.875Z,3.07
2023-01-12T15:28:56.113Z,4.38
2023-01-12T15:33:58.779Z,4.53
2023-01-12T15:39:00.939Z,4.00
2023-01-12T15:44:03.000Z,4.35
2023-01-12T15:49:05.993Z,4.22
2023-01-12T15:54:11.870Z,4.32
2023-01-12T15:59:14.136Z,3.58
2023-01-12T16:04:43.221Z,3.05
2023-01-12T16:09:47.934Z,4.30
2023-01-12T16:14:50.398Z,5.05
2023-01-12T16:19:52.689Z,4.78
2023-01-12T16:24:56.515Z,3.90
2023-01-12T16:29:58.756Z,4.75
2023-01-12T16:35:01.015Z,4.65
2023-01-12T16:40:03.719Z,4.43
2023-01-12T16:45:06.427Z,4.47
2023-01-12T16:50:09.107Z,5.85
2023-01-12T16:55:11.175Z,4.55
2023-01-12T17:00:14.289Z,4.47
2023-01-12T17:05:16.741Z,3.95
2023-01-12T17:10:19.076Z,4.47
2023-01-12T17:15:21.220Z,5.45
2023-01-12T17:20:23.676Z,3.40
2023-01-12T17:25:26.050Z,4.63
2023-01-12T17:30:28.417Z,4.35
2023-01-12T17:35:30.659Z,4.82
2023-01-12T17:40:32.948Z,5.38
2023-01-12T17:45:42.402Z,4.95
2023-01-12T17:50:44.995Z,4.85
2023-01-12T17:55:48.699Z,4.65
2023-01-12T18:00:51.895Z,5.20
2023-01-12T18:06:04.350Z,5.75
2023-01-12T18:11:09.344Z,5.47
2023-01-12T18:16:13.444Z,5.07
2023-01-12T18:21:20.676Z,5.78
2023-01-12T18:26:28.754Z,4.95
2023-01-12T18:31:32.794Z,4.00
2023-01-12T18:36:38.151Z,3.17
2023-01-12T18:41:58.807Z,4.15
2023-01-12T18:47:20.456Z,5.10
2023-01-12T18:52:41.005Z,4.38
2023-01-12T18:57:43.022Z,3.97
2023-01-12T19:02:45.258Z,4.93
2023-01-12T19:08:04.006Z,4.10
2023-01-12T19:13:24.805Z,3.00
2023-01-12T19:18:27.400Z,2.40
2023-01-12T19:23:48.178Z,4.00
2023-01-12T19:28:50.392Z,4.00
2023-01-12T19:33:52.491Z,4.53
2023-01-12T19:38:54.752Z,3.88
2023-01-12T19:43:56.838Z,3.83
2023-01-12T19:48:58.982Z,3.75
2023-01-12T19:54:01.041Z,2.90
2023-01-12T19:59:03.128Z,3.70
2023-01-12T20:04:05.241Z,3.70
2023-01-12T20:09:07.343Z,2.58
2023-01-12T20:14:09.714Z,3.67
2023-01-12T20:19:11.829Z,3.45
2023-01-12T20:24:13.936Z,3.70
2023-01-12T20:29:16.162Z,3.95
2023-01-12T20:34:20.283Z,4.30
2023-01-12T20:39:24.172Z,4.20
2023-01-12T20:44:26.334Z,4.43
2023-01-12T20:49:28.569Z,3.70
2023-01-12T20:54:30.850Z,3.38
2023-01-12T20:59:32.991Z,4.18
2023-01-12T21:04:35.133Z,4.35
2023-01-12T21:09:37.173Z,3.95
2023-01-12T21:14:39.291Z,3.78
2023-01-12T21:19:41.340Z,4.63
2023-01-12T21:24:43.416Z,2.97
2023-01-12T21:29:46.071Z,2.85
2023-01-12T21:34:50.360Z,4.18
2023-01-12T21:39:52.505Z,4.88
2023-01-12T21:44:54.628Z,4.20
2023-01-12T21:49:57.129Z,4.40
2023-01-12T21:55:00.001Z,4.88
2023-01-12T22:00:02.168Z,3.67
2023-01-12T22:05:14.343Z,5.03
2023-01-12T22:10:20.542Z,4.65
2023-01-12T22:15:23.784Z,4.68
2023-01-12T22:20:27.852Z,4.75
2023-01-12T22:25:29.936Z,5.38
2023-01-12T22:30:32.077Z,4.30
2023-01-12T22:35:34.264Z,5.15
2023-01-12T22:40:36.473Z,5.00
2023-01-12T22:45:38.977Z,5.40
2023-01-12T22:50:41.172Z,5.63
2023-01-12T22:55:43.353Z,5.28
2023-01-12T23:00:45.803Z,5.38
2023-01-12T23:05:49.897Z,4.90
2023-01-12T23:10:52.830Z,4.53
2023-01-12T23:15:58.127Z,4.75
2023-01-12T23:21:11.185Z,5.15
2023-01-12T23:26:16.774Z,4.85
2023-01-12T23:31:24.405Z,4.95
2023-01-12T23:36:28.533Z,5.88
2023-01-12T23:41:33.398Z,5.03
2023-01-12T23:46:38.377Z,5.20
2023-01-12T23:51:40.540Z,4.90
2023-01-12T23:56:42.681Z,4.35
